TimeCST,TemperatureF,Dew PointF,Humidity,Sea Level PressureIn,VisibilityMPH,Wind Direction,Wind SpeedMPH,Gust SpeedMPH,PrecipitationIn,Events,Conditions,WindDirDegrees,DateUTC
12:15 AM,13.5,10.9,90,30.33,10.0,Calm,Calm,-,N/A,,Clear,0,2013-01-10 06:15:00
12:35 AM,12.4,10.2,91,30.33,10.0,NE,3.5,-,N/A,,Clear,50,2013-01-10 06:35:00
12:55 AM,11.3,8.2,87,30.35,10.0,Calm,Calm,-,N/A,,Clear,0,2013-01-10 06:55:00
2:15 AM,13.1,11.1,92,30.38,10.0,SSW,4.6,-,N/A,,Clear,200,2013-01-10 08:15:00
2:35 AM,12.7,10.6,91,30.39,10.0,Calm,Calm,-,N/A,,Clear,0,2013-01-10 08:35:00
2:55 AM,13.1,11.1,92,30.41,10.0,Calm,Calm,-,N/A,,Clear,0,2013-01-10 08:55:00
3:15 AM,17.1,15.1,92,30.42,10.0,Calm,Calm,-,N/A,,Clear,0,2013-01-10 09:15:00
3:35 AM,14.4,12.4,92,30.41,10.0,Calm,Calm,-,N/A,,Clear,0,2013-01-10 09:35:00
3:55 AM,14.0,11.8,91,30.41,10.0,Calm,Calm,-,N/A,,Clear,0,2013-01-10 09:55:00
4:15 AM,13.5,11.1,90,30.41,10.0,Calm,Calm,-,N/A,,Clear,0,2013-01-10 10:15:00
4:35 AM,11.3,8.6,89,30.41,10.0,Calm,Calm,-,N/A,,Clear,0,2013-01-10 10:35:00
4:55 AM,13.1,11.1,92,30.40,10.0,Calm,Calm,-,N/A,,Clear,0,2013-01-10 10:55:00
5:15 AM,10.9,8.4,90,30.40,10.0,Calm,Calm,-,N/A,,Clear,0,2013-01-10 11:15:00
5:35 AM,12.9,10.9,92,30.40,10.0,Calm,Calm,-,N/A,,Clear,0,2013-01-10 11:35:00
5:55 AM,11.1,8.2,88,30.39,10.0,ESE,3.5,-,N/A,,Clear,110,2013-01-10 11:55:00
6:35 AM,12.6,9.9,89,30.39,10.0,South,3.5,-,N/A,,Clear,170,2013-01-10 12:35:00
6:55 AM,14.5,12.0,90,30.39,10.0,SSE,5.8,-,N/A,,Clear,150,2013-01-10 12:55:00
7:15 AM,15.1,11.7,86,30.39,10.0,SSE,8.1,-,N/A,,Clear,150,2013-01-10 13:15:00
7:55 AM,18.9,14.5,83,30.39,10.0,SSE,5.8,-,N/A,,Clear,150,2013-01-10 13:55:00
8:35 AM,19.4,15.3,84,30.38,10.0,SE,9.2,-,N/A,,Clear,140,2013-01-10 14:35:00
8:55 AM,21.6,16.9,82,30.37,10.0,SSE,6.9,-,N/A,,Clear,160,2013-01-10 14:55:00
9:15 AM,22.8,17.4,80,30.37,10.0,SSE,6.9,-,N/A,,Clear,160,2013-01-10 15:15:00
9:35 AM,23.9,17.8,77,30.36,10.0,SSE,6.9,-,N/A,,Clear,160,2013-01-10 15:35:00
9:55 AM,25.5,18.9,76,30.36,10.0,SSE,8.1,-,N/A,,Clear,150,2013-01-10 15:55:00
10:15 AM,27.7,19.4,71,30.36,10.0,SSE,6.9,-,N/A,,Clear,150,2013-01-10 16:15:00
10:35 AM,29.3,19.8,68,30.35,10.0,SE,5.8,-,N/A,,Clear,140,2013-01-10 16:35:00
10:55 AM,29.7,19.4,66,30.33,10.0,SSE,9.2,-,N/A,,Clear,150,2013-01-10 16:55:00
11:15 AM,30.4,19.4,64,30.32,10.0,SSE,9.2,-,N/A,,Clear,160,2013-01-10 17:15:00
11:35 AM,31.1,20.1,64,30.30,10.0,SSE,9.2,-,N/A,,Clear,150,2013-01-10 17:35:00
11:55 AM,32.2,20.5,62,30.29,10.0,South,5.8,-,N/A,,Clear,170,2013-01-10 17:55:00
12:15 PM,33.4,20.3,59,30.27,10.0,SSE,4.6,-,N/A,,Clear,160,2013-01-10 18:15:00
12:35 PM,34.2,20.7,58,30.25,10.0,SSE,8.1,-,N/A,,Clear,160,2013-01-10 18:35:00
12:55 PM,34.3,19.0,54,30.24,10.0,SSE,6.9,-,N/A,,Clear,160,2013-01-10 18:55:00
1:15 PM,34.5,21.0,58,30.24,10.0,South,8.1,-,N/A,,Clear,170,2013-01-10 19:15:00
1:35 PM,33.8,20.3,58,30.22,10.0,South,9.2,-,N/A,,Clear,170,2013-01-10 19:35:00
1:55 PM,34.0,19.6,56,30.22,10.0,SSE,9.2,-,N/A,,Clear,150,2013-01-10 19:55:00
2:15 PM,33.3,19.4,57,30.20,10.0,SSE,11.5,-,N/A,,Clear,160,2013-01-10 20:15:00
2:35 PM,32.9,19.8,59,30.21,10.0,SSE,9.2,-,N/A,,Clear,160,2013-01-10 20:35:00
2:55 PM,32.9,20.5,60,30.21,10.0,SSE,9.2,-,N/A,,Clear,150,2013-01-10 20:55:00
3:15 PM,33.1,20.3,59,30.20,10.0,SE,9.2,-,N/A,,Clear,140,2013-01-10 21:15:00
3:35 PM,32.7,20.3,60,30.20,10.0,ESE,9.2,-,N/A,,Clear,120,2013-01-10 21:35:00
3:55 PM,32.0,21.2,64,30.19,10.0,ESE,9.2,-,N/A,,Clear,120,2013-01-10 21:55:00
4:15 PM,32.0,21.6,65,30.17,10.0,SE,9.2,-,N/A,,Clear,130,2013-01-10 22:15:00
4:35 PM,32.0,21.6,65,30.17,10.0,SE,9.2,-,N/A,,Clear,130,2013-01-10 22:35:00
4:55 PM,31.8,22.6,69,30.16,10.0,SE,11.5,-,N/A,,Clear,140,2013-01-10 22:55:00
5:15 PM,31.6,25.3,78,30.15,10.0,SE,12.7,-,N/A,,Clear,130,2013-01-10 23:15:00
5:35 PM,31.6,27.0,83,30.14,10.0,ESE,11.5,-,N/A,,Clear,120,2013-01-10 23:35:00
5:55 PM,31.8,27.3,83,30.12,10.0,ESE,9.2,-,N/A,,Clear,110,2013-01-10 23:55:00
6:15 PM,32.0,27.3,83,30.11,10.0,ESE,11.5,-,N/A,,Clear,120,2013-01-11 00:15:00
6:35 PM,32.2,27.5,83,30.10,10.0,ESE,12.7,-,N/A,,Scattered Clouds,120,2013-01-11 00:35:00
6:55 PM,32.0,28.0,85,30.09,10.0,SE,13.8,-,N/A,,Mostly Cloudy,130,2013-01-11 00:55:00
7:15 PM,32.4,28.4,85,30.08,10.0,SE,18.4,25.3,N/A,,Overcast,130,2013-01-11 01:15:00
7:35 PM,32.2,29.3,89,30.07,7.0,SE,16.1,-,N/A,,Overcast,130,2013-01-11 01:35:00
7:55 PM,32.2,29.7,90,30.05,7.0,SE,16.1,-,N/A,,Overcast,130,2013-01-11 01:55:00
8:15 PM,32.2,29.8,91,30.02,7.0,ESE,18.4,23.0,N/A,,Overcast,120,2013-01-11 02:15:00
8:55 PM,32.0,30.2,93,29.98,3.0,SE,20.7,-,0.01,,Overcast,130,2013-01-11 02:55:00
9:15 PM,32.0,30.6,94,29.96,3.0,SE,19.6,26.5,N/A,,Overcast,130,2013-01-11 03:15:00
9:35 PM,32.0,30.9,96,29.96,3.0,SE,15.0,24.2,0.01,,Overcast,130,2013-01-11 03:35:00
9:55 PM,32.0,31.1,96,29.93,2.5,SE,18.4,23.0,0.02,,Overcast,130,2013-01-11 03:55:00
10:15 PM,32.0,31.1,96,29.92,4.0,SE,15.0,19.6,N/A,,Overcast,130,2013-01-11 04:15:00
10:35 PM,32.0,31.5,98,29.90,3.0,SE,11.5,-,N/A,,Overcast,130,2013-01-11 04:35:00
10:55 PM,32.0,31.6,99,29.90,2.5,SE,13.8,18.4,N/A,Snow,Light Snow,140,2013-01-11 04:55:00
11:15 PM,32.0,31.6,99,29.86,2.0,SE,15.0,19.6,N/A,,Overcast,130,2013-01-11 05:15:00
11:35 PM,32.0,31.6,99,29.86,4.0,SE,13.8,19.6,N/A,Snow,Light Snow,140,2013-01-11 05:35:00
11:55 PM,32.0,31.6,99,29.85,5.0,SE,16.1,19.6,N/A,,Overcast,140,2013-01-11 05:55:00